sensor_id;sensor_type;location;lat;lon;timestamp;P1;durP1;ratioP1;P2;durP2;ratioP2
51714;SDS011;39115;59.332;18.034;2022-08-19T00:01:39;18.48;;;13.05;;
51714;SDS011;39115;59.332;18.034;2022-08-19T00:04:07;20.35;;;13.13;;
51714;SDS011;39115;59.332;18.034;2022-08-19T00:06:35;18.55;;;12.93;;
51714;SDS011;39115;59.332;18.034;2022-08-19T00:09:03;20.60;;;13.70;;
51714;SDS011;39115;59.332;18.034;2022-08-19T00:11:30;21.95;;;13.18;;
51714;SDS011;39115;59.332;18.034;2022-08-19T00:13:56;22.58;;;13.68;;
51714;SDS011;39115;59.332;18.034;2022-08-19T00:16:22;23.77;;;13.52;;
51714;SDS011;39115;59.332;18.034;2022-08-19T00:18:49;22.95;;;13.98;;
51714;SDS011;39115;59.332;18.034;2022-08-19T00:21:14;21.50;;;14.05;;
51714;SDS011;39115;59.332;18.034;2022-08-19T00:23:41;24.63;;;15.13;;
51714;SDS011;39115;59.332;18.034;2022-08-19T00:26:08;26.60;;;15.05;;
51714;SDS011;39115;59.332;18.034;2022-08-19T00:28:34;27.50;;;15.55;;
51714;SDS011;39115;59.332;18.034;2022-08-19T00:31:01;23.83;;;14.70;;
51714;SDS011;39115;59.332;18.034;2022-08-19T00:33:27;27.67;;;15.27;;
51714;SDS011;39115;59.332;18.034;2022-08-19T00:35:54;23.65;;;15.80;;
51714;SDS011;39115;59.332;18.034;2022-08-19T00:38:20;24.77;;;15.10;;
51714;SDS011;39115;59.332;18.034;2022-08-19T00:40:47;29.17;;;16.48;;
51714;SDS011;39115;59.332;18.034;2022-08-19T00:43:13;23.98;;;14.68;;
51714;SDS011;39115;59.332;18.034;2022-08-19T00:45:43;24.17;;;15.45;;
51714;SDS011;39115;59.332;18.034;2022-08-19T00:48:09;21.90;;;14.70;;
51714;SDS011;39115;59.332;18.034;2022-08-19T00:50:35;24.15;;;14.85;;
51714;SDS011;39115;59.332;18.034;2022-08-19T00:53:02;23.98;;;15.25;;
51714;SDS011;39115;59.332;18.034;2022-08-19T00:55:29;25.38;;;14.80;;
51714;SDS011;39115;59.332;18.034;2022-08-19T00:58:02;27.77;;;16.52;;
51714;SDS011;39115;59.332;18.034;2022-08-19T01:00:32;25.65;;;15.35;;
51714;SDS011;39115;59.332;18.034;2022-08-19T01:03:01;24.08;;;15.15;;
51714;SDS011;39115;59.332;18.034;2022-08-19T01:05:28;24.50;;;14.43;;
51714;SDS011;39115;59.332;18.034;2022-08-19T01:07:54;29.05;;;17.30;;
51714;SDS011;39115;59.332;18.034;2022-08-19T01:10:24;21.17;;;15.18;;
51714;SDS011;39115;59.332;18.034;2022-08-19T01:12:52;19.25;;;14.73;;
51714;SDS011;39115;59.332;18.034;2022-08-19T01:15:19;17.70;;;13.82;;
51714;SDS011;39115;59.332;18.034;2022-08-19T01:17:47;19.67;;;14.77;;
51714;SDS011;39115;59.332;18.034;2022-08-19T01:20:15;22.80;;;15.93;;
51714;SDS011;39115;59.332;18.034;2022-08-19T01:22:48;23.13;;;15.45;;
51714;SDS011;39115;59.332;18.034;2022-08-19T01:25:18;22.70;;;15.77;;
51714;SDS011;39115;59.332;18.034;2022-08-19T01:27:48;20.48;;;14.65;;
51714;SDS011;39115;59.332;18.034;2022-08-19T01:30:17;24.63;;;16.38;;
51714;SDS011;39115;59.332;18.034;2022-08-19T01:32:49;22.88;;;16.02;;
51714;SDS011;39115;59.332;18.034;2022-08-19T01:35:17;20.48;;;16.02;;
51714;SDS011;39115;59.332;18.034;2022-08-19T01:37:47;21.25;;;15.57;;
51714;SDS011;39115;59.332;18.034;2022-08-19T01:40:18;21.67;;;15.25;;
51714;SDS011;39115;59.332;18.034;2022-08-19T01:42:46;27.05;;;17.23;;
51714;SDS011;39115;59.332;18.034;2022-08-19T01:45:12;24.98;;;16.50;;
51714;SDS011;39115;59.332;18.034;2022-08-19T01:47:38;22.55;;;16.52;;
51714;SDS011;39115;59.332;18.034;2022-08-19T01:50:04;23.95;;;15.50;;
51714;SDS011;39115;59.332;18.034;2022-08-19T01:52:34;25.73;;;16.83;;
51714;SDS011;39115;59.332;18.034;2022-08-19T01:55:01;23.25;;;17.23;;
51714;SDS011;39115;59.332;18.034;2022-08-19T01:57:26;21.73;;;17.20;;
51714;SDS011;39115;59.332;18.034;2022-08-19T01:59:52;24.13;;;17.35;;
51714;SDS011;39115;59.332;18.034;2022-08-19T02:02:18;22.85;;;17.23;;
51714;SDS011;39115;59.332;18.034;2022-08-19T02:04:44;22.48;;;16.60;;
51714;SDS011;39115;59.332;18.034;2022-08-19T02:07:10;23.17;;;16.55;;
51714;SDS011;39115;59.332;18.034;2022-08-19T02:09:36;27.08;;;18.50;;
51714;SDS011;39115;59.332;18.034;2022-08-19T02:12:02;25.48;;;17.58;;
51714;SDS011;39115;59.332;18.034;2022-08-19T02:14:28;23.20;;;17.02;;
51714;SDS011;39115;59.332;18.034;2022-08-19T02:16:53;23.50;;;16.73;;
51714;SDS011;39115;59.332;18.034;2022-08-19T02:19:19;24.77;;;17.50;;
51714;SDS011;39115;59.332;18.034;2022-08-19T02:21:44;24.02;;;18.42;;
51714;SDS011;39115;59.332;18.034;2022-08-19T02:24:10;28.52;;;18.48;;
51714;SDS011;39115;59.332;18.034;2022-08-19T02:26:35;27.23;;;18.27;;
51714;SDS011;39115;59.332;18.034;2022-08-19T02:29:00;25.38;;;19.10;;
51714;SDS011;39115;59.332;18.034;2022-08-19T02:31:26;24.25;;;18.10;;
51714;SDS011;39115;59.332;18.034;2022-08-19T02:33:53;26.00;;;18.58;;
51714;SDS011;39115;59.332;18.034;2022-08-19T02:36:20;29.52;;;17.70;;
51714;SDS011;39115;59.332;18.034;2022-08-19T02:38:46;24.42;;;17.88;;
51714;SDS011;39115;59.332;18.034;2022-08-19T02:41:15;25.08;;;17.65;;
51714;SDS011;39115;59.332;18.034;2022-08-19T02:43:42;24.80;;;17.85;;
51714;SDS011;39115;59.332;18.034;2022-08-19T02:46:27;24.90;;;18.60;;
51714;SDS011;39115;59.332;18.034;2022-08-19T02:48:55;25.20;;;18.13;;
51714;SDS011;39115;59.332;18.034;2022-08-19T02:51:24;25.30;;;17.15;;
51714;SDS011;39115;59.332;18.034;2022-08-19T02:53:51;24.58;;;17.50;;
51714;SDS011;39115;59.332;18.034;2022-08-19T02:56:17;24.42;;;17.42;;
51714;SDS011;39115;59.332;18.034;2022-08-19T02:58:43;25.95;;;18.33;;
51714;SDS011;39115;59.332;18.034;2022-08-19T03:01:09;27.02;;;18.38;;
51714;SDS011;39115;59.332;18.034;2022-08-19T03:03:36;28.65;;;18.05;;
51714;SDS011;39115;59.332;18.034;2022-08-19T03:06:04;26.55;;;17.95;;
51714;SDS011;39115;59.332;18.034;2022-08-19T03:08:32;25.02;;;18.50;;
51714;SDS011;39115;59.332;18.034;2022-08-19T03:10:57;22.23;;;18.10;;
51714;SDS011;39115;59.332;18.034;2022-08-19T03:13:22;26.70;;;18.58;;
51714;SDS011;39115;59.332;18.034;2022-08-19T03:15:49;24.60;;;18.17;;
51714;SDS011;39115;59.332;18.034;2022-08-19T03:18:14;27.63;;;18.17;;
51714;SDS011;39115;59.332;18.034;2022-08-19T03:20:41;27.17;;;17.45;;
51714;SDS011;39115;59.332;18.034;2022-08-19T03:23:08;23.83;;;17.20;;
51714;SDS011;39115;59.332;18.034;2022-08-19T03:25:37;23.90;;;17.75;;
51714;SDS011;39115;59.332;18.034;2022-08-19T03:28:08;24.75;;;19.27;;
51714;SDS011;39115;59.332;18.034;2022-08-19T03:30:37;28.67;;;19.88;;
51714;SDS011;39115;59.332;18.034;2022-08-19T03:33:05;31.45;;;19.95;;
51714;SDS011;39115;59.332;18.034;2022-08-19T03:35:31;28.38;;;18.52;;
51714;SDS011;39115;59.332;18.034;2022-08-19T03:37:58;27.00;;;18.85;;
51714;SDS011;39115;59.332;18.034;2022-08-19T03:40:24;29.40;;;21.42;;
51714;SDS011;39115;59.332;18.034;2022-08-19T03:42:50;30.80;;;20.42;;
51714;SDS011;39115;59.332;18.034;2022-08-19T03:45:15;29.65;;;21.13;;
51714;SDS011;39115;59.332;18.034;2022-08-19T03:47:41;27.50;;;20.55;;
51714;SDS011;39115;59.332;18.034;2022-08-19T03:50:06;24.50;;;18.80;;
51714;SDS011;39115;59.332;18.034;2022-08-19T03:52:33;25.65;;;20.33;;
51714;SDS011;39115;59.332;18.034;2022-08-19T03:54:58;25.80;;;20.10;;
51714;SDS011;39115;59.332;18.034;2022-08-19T03:57:24;26.45;;;19.20;;
51714;SDS011;39115;59.332;18.034;2022-08-19T03:59:49;25.55;;;18.83;;
51714;SDS011;39115;59.332;18.034;2022-08-19T04:02:15;26.63;;;19.42;;
51714;SDS011;39115;59.332;18.034;2022-08-19T04:04:41;32.22;;;19.83;;
51714;SDS011;39115;59.332;18.034;2022-08-19T04:07:08;25.83;;;19.25;;
51714;SDS011;39115;59.332;18.034;2022-08-19T04:09:35;28.40;;;19.92;;
51714;SDS011;39115;59.332;18.034;2022-08-19T04:12:04;25.00;;;18.05;;
51714;SDS011;39115;59.332;18.034;2022-08-19T04:14:30;27.73;;;18.83;;
51714;SDS011;39115;59.332;18.034;2022-08-19T04:16:57;30.52;;;19.30;;
51714;SDS011;39115;59.332;18.034;2022-08-19T04:19:24;24.52;;;18.92;;
51714;SDS011;39115;59.332;18.034;2022-08-19T04:21:51;26.50;;;19.45;;
51714;SDS011;39115;59.332;18.034;2022-08-19T04:24:18;29.10;;;20.75;;
51714;SDS011;39115;59.332;18.034;2022-08-19T04:26:45;25.08;;;19.73;;
51714;SDS011;39115;59.332;18.034;2022-08-19T04:29:12;24.42;;;19.92;;
51714;SDS011;39115;59.332;18.034;2022-08-19T04:31:40;27.20;;;18.95;;
51714;SDS011;39115;59.332;18.034;2022-08-19T04:34:08;25.75;;;19.25;;
51714;SDS011;39115;59.332;18.034;2022-08-19T04:36:36;23.30;;;17.80;;
51714;SDS011;39115;59.332;18.034;2022-08-19T04:39:07;22.35;;;17.50;;
51714;SDS011;39115;59.332;18.034;2022-08-19T04:41:34;25.42;;;18.92;;
51714;SDS011;39115;59.332;18.034;2022-08-19T04:44:19;26.13;;;17.98;;
51714;SDS011;39115;59.332;18.034;2022-08-19T04:46:45;23.48;;;17.90;;
51714;SDS011;39115;59.332;18.034;2022-08-19T04:49:12;21.17;;;17.58;;
51714;SDS011;39115;59.332;18.034;2022-08-19T04:51:40;25.50;;;18.35;;
51714;SDS011;39115;59.332;18.034;2022-08-19T04:54:07;22.52;;;17.83;;
51714;SDS011;39115;59.332;18.034;2022-08-19T04:56:33;24.88;;;18.50;;
51714;SDS011;39115;59.332;18.034;2022-08-19T04:58:59;22.25;;;17.13;;
51714;SDS011;39115;59.332;18.034;2022-08-19T05:01:28;21.38;;;17.40;;
51714;SDS011;39115;59.332;18.034;2022-08-19T05:03:57;22.30;;;17.35;;
51714;SDS011;39115;59.332;18.034;2022-08-19T05:06:26;23.70;;;17.95;;
51714;SDS011;39115;59.332;18.034;2022-08-19T05:08:53;24.73;;;17.13;;
51714;SDS011;39115;59.332;18.034;2022-08-19T05:11:21;22.65;;;17.15;;
51714;SDS011;39115;59.332;18.034;2022-08-19T05:13:51;23.48;;;16.13;;
51714;SDS011;39115;59.332;18.034;2022-08-19T05:16:18;20.55;;;15.93;;
51714;SDS011;39115;59.332;18.034;2022-08-19T05:18:46;19.20;;;14.90;;
51714;SDS011;39115;59.332;18.034;2022-08-19T05:21:31;23.20;;;16.00;;
51714;SDS011;39115;59.332;18.034;2022-08-19T05:24:15;20.55;;;14.85;;
51714;SDS011;39115;59.332;18.034;2022-08-19T05:26:43;22.30;;;16.48;;
51714;SDS011;39115;59.332;18.034;2022-08-19T05:29:17;19.67;;;15.38;;
51714;SDS011;39115;59.332;18.034;2022-08-19T05:31:44;19.20;;;15.73;;
51714;SDS011;39115;59.332;18.034;2022-08-19T05:34:13;23.33;;;16.58;;
51714;SDS011;39115;59.332;18.034;2022-08-19T05:36:39;20.83;;;15.07;;
51714;SDS011;39115;59.332;18.034;2022-08-19T05:39:09;22.55;;;14.70;;
51714;SDS011;39115;59.332;18.034;2022-08-19T05:41:37;24.20;;;14.98;;
51714;SDS011;39115;59.332;18.034;2022-08-19T05:44:07;18.27;;;15.15;;
51714;SDS011;39115;59.332;18.034;2022-08-19T05:46:34;18.98;;;14.23;;
51714;SDS011;39115;59.332;18.034;2022-08-19T05:49:02;14.98;;;13.13;;
51714;SDS011;39115;59.332;18.034;2022-08-19T05:51:29;18.33;;;13.00;;
51714;SDS011;39115;59.332;18.034;2022-08-19T05:53:55;18.38;;;13.65;;
51714;SDS011;39115;59.332;18.034;2022-08-19T05:56:20;18.27;;;12.82;;
51714;SDS011;39115;59.332;18.034;2022-08-19T05:58:46;18.05;;;13.95;;
51714;SDS011;39115;59.332;18.034;2022-08-19T06:01:13;19.20;;;15.32;;
51714;SDS011;39115;59.332;18.034;2022-08-19T06:03:40;15.20;;;13.20;;
51714;SDS011;39115;59.332;18.034;2022-08-19T06:06:06;21.05;;;14.15;;
51714;SDS011;39115;59.332;18.034;2022-08-19T06:08:34;18.17;;;12.80;;
51714;SDS011;39115;59.332;18.034;2022-08-19T06:13:45;17.73;;;13.35;;
51714;SDS011;39115;59.332;18.034;2022-08-19T06:16:14;15.07;;;12.65;;
51714;SDS011;39115;59.332;18.034;2022-08-19T06:18:49;16.42;;;13.07;;
51714;SDS011;39115;59.332;18.034;2022-08-19T06:21:17;16.58;;;12.88;;
51714;SDS011;39115;59.332;18.034;2022-08-19T06:23:47;15.77;;;11.43;;
51714;SDS011;39115;59.332;18.034;2022-08-19T06:26:13;19.23;;;12.63;;
51714;SDS011;39115;59.332;18.034;2022-08-19T06:28:40;14.13;;;11.30;;
51714;SDS011;39115;59.332;18.034;2022-08-19T06:31:15;14.65;;;11.48;;
51714;SDS011;39115;59.332;18.034;2022-08-19T06:33:46;13.98;;;10.85;;
51714;SDS011;39115;59.332;18.034;2022-08-19T06:36:17;13.30;;;10.45;;
51714;SDS011;39115;59.332;18.034;2022-08-19T06:38:43;12.90;;;10.30;;
51714;SDS011;39115;59.332;18.034;2022-08-19T06:41:08;13.85;;;10.63;;
51714;SDS011;39115;59.332;18.034;2022-08-19T06:43:34;14.73;;;9.85;;
51714;SDS011;39115;59.332;18.034;2022-08-19T06:46:01;12.52;;;10.20;;
51714;SDS011;39115;59.332;18.034;2022-08-19T06:48:28;12.98;;;9.88;;
51714;SDS011;39115;59.332;18.034;2022-08-19T06:50:54;13.50;;;9.23;;
51714;SDS011;39115;59.332;18.034;2022-08-19T06:53:19;12.05;;;9.98;;
51714;SDS011;39115;59.332;18.034;2022-08-19T06:55:45;11.75;;;9.05;;
51714;SDS011;39115;59.332;18.034;2022-08-19T06:58:10;14.10;;;9.32;;
51714;SDS011;39115;59.332;18.034;2022-08-19T07:00:36;11.23;;;8.30;;
51714;SDS011;39115;59.332;18.034;2022-08-19T07:03:02;11.75;;;8.93;;
51714;SDS011;39115;59.332;18.034;2022-08-19T07:05:27;11.48;;;8.70;;
51714;SDS011;39115;59.332;18.034;2022-08-19T07:07:53;11.70;;;9.15;;
51714;SDS011;39115;59.332;18.034;2022-08-19T07:10:18;9.38;;;7.97;;
51714;SDS011;39115;59.332;18.034;2022-08-19T07:12:44;13.45;;;9.10;;
51714;SDS011;39115;59.332;18.034;2022-08-19T07:15:10;13.70;;;8.45;;
51714;SDS011;39115;59.332;18.034;2022-08-19T07:17:36;16.02;;;8.32;;
51714;SDS011;39115;59.332;18.034;2022-08-19T07:20:03;11.68;;;8.23;;
51714;SDS011;39115;59.332;18.034;2022-08-19T07:22:31;14.68;;;7.80;;
51714;SDS011;39115;59.332;18.034;2022-08-19T07:24:57;9.23;;;7.05;;
51714;SDS011;39115;59.332;18.034;2022-08-19T07:27:23;7.57;;;6.50;;
51714;SDS011;39115;59.332;18.034;2022-08-19T07:29:48;11.73;;;7.22;;
51714;SDS011;39115;59.332;18.034;2022-08-19T07:32:13;11.15;;;7.13;;
51714;SDS011;39115;59.332;18.034;2022-08-19T07:34:39;8.10;;;6.20;;
51714;SDS011;39115;59.332;18.034;2022-08-19T07:37:05;7.78;;;6.50;;
51714;SDS011;39115;59.332;18.034;2022-08-19T07:39:32;8.60;;;6.57;;
51714;SDS011;39115;59.332;18.034;2022-08-19T07:42:00;10.63;;;6.30;;
51714;SDS011;39115;59.332;18.034;2022-08-19T07:44:28;8.75;;;5.75;;
51714;SDS011;39115;59.332;18.034;2022-08-19T07:46:55;17.27;;;6.63;;
51714;SDS011;39115;59.332;18.034;2022-08-19T07:49:21;12.07;;;6.25;;
51714;SDS011;39115;59.332;18.034;2022-08-19T07:51:49;9.50;;;5.95;;
51714;SDS011;39115;59.332;18.034;2022-08-19T07:54:21;11.30;;;5.50;;
51714;SDS011;39115;59.332;18.034;2022-08-19T07:56:47;6.43;;;5.10;;
51714;SDS011;39115;59.332;18.034;2022-08-19T07:59:15;8.80;;;5.10;;
51714;SDS011;39115;59.332;18.034;2022-08-19T08:01:42;10.60;;;5.72;;
51714;SDS011;39115;59.332;18.034;2022-08-19T08:04:07;8.02;;;5.32;;
51714;SDS011;39115;59.332;18.034;2022-08-19T08:06:52;11.27;;;6.03;;
51714;SDS011;39115;59.332;18.034;2022-08-19T08:09:38;10.63;;;4.90;;
51714;SDS011;39115;59.332;18.034;2022-08-19T08:12:17;14.15;;;5.45;;
51714;SDS011;39115;59.332;18.034;2022-08-19T08:14:48;7.40;;;4.93;;
51714;SDS011;39115;59.332;18.034;2022-08-19T08:17:15;8.45;;;5.53;;
51714;SDS011;39115;59.332;18.034;2022-08-19T08:19:44;9.43;;;5.00;;
51714;SDS011;39115;59.332;18.034;2022-08-19T08:22:14;10.20;;;4.82;;
51714;SDS011;39115;59.332;18.034;2022-08-19T08:25:00;8.55;;;4.72;;
51714;SDS011;39115;59.332;18.034;2022-08-19T08:27:28;12.45;;;5.50;;
51714;SDS011;39115;59.332;18.034;2022-08-19T08:29:56;10.05;;;4.60;;
51714;SDS011;39115;59.332;18.034;2022-08-19T08:32:21;6.35;;;4.45;;
51714;SDS011;39115;59.332;18.034;2022-08-19T08:34:47;10.05;;;4.95;;
51714;SDS011;39115;59.332;18.034;2022-08-19T08:37:13;9.02;;;4.63;;
51714;SDS011;39115;59.332;18.034;2022-08-19T08:39:39;5.63;;;4.20;;
51714;SDS011;39115;59.332;18.034;2022-08-19T08:42:17;6.32;;;4.10;;
51714;SDS011;39115;59.332;18.034;2022-08-19T08:45:03;7.18;;;4.10;;
51714;SDS011;39115;59.332;18.034;2022-08-19T08:47:40;7.13;;;3.90;;
51714;SDS011;39115;59.332;18.034;2022-08-19T08:50:10;8.38;;;3.90;;
51714;SDS011;39115;59.332;18.034;2022-08-19T08:52:43;9.45;;;3.72;;
51714;SDS011;39115;59.332;18.034;2022-08-19T08:55:12;5.28;;;3.72;;
51714;SDS011;39115;59.332;18.034;2022-08-19T09:00:19;8.48;;;4.53;;
51714;SDS011;39115;59.332;18.034;2022-08-19T09:02:45;8.40;;;4.32;;
51714;SDS011;39115;59.332;18.034;2022-08-19T09:05:11;6.85;;;3.55;;
51714;SDS011;39115;59.332;18.034;2022-08-19T09:12:56;6.35;;;4.07;;
51714;SDS011;39115;59.332;18.034;2022-08-19T09:15:35;7.85;;;3.95;;
51714;SDS011;39115;59.332;18.034;2022-08-19T09:18:05;8.10;;;3.70;;
51714;SDS011;39115;59.332;18.034;2022-08-19T09:20:31;4.75;;;3.70;;
51714;SDS011;39115;59.332;18.034;2022-08-19T09:22:57;6.32;;;3.53;;
51714;SDS011;39115;59.332;18.034;2022-08-19T09:25:23;9.48;;;4.00;;
51714;SDS011;39115;59.332;18.034;2022-08-19T09:27:49;9.07;;;3.60;;
51714;SDS011;39115;59.332;18.034;2022-08-19T09:30:18;11.85;;;3.85;;
51714;SDS011;39115;59.332;18.034;2022-08-19T09:32:46;6.45;;;3.28;;
51714;SDS011;39115;59.332;18.034;2022-08-19T09:35:13;9.02;;;3.75;;
51714;SDS011;39115;59.332;18.034;2022-08-19T09:37:39;7.43;;;3.83;;
51714;SDS011;39115;59.332;18.034;2022-08-19T09:40:06;7.28;;;3.33;;
51714;SDS011;39115;59.332;18.034;2022-08-19T09:42:32;12.88;;;4.38;;
51714;SDS011;39115;59.332;18.034;2022-08-19T09:44:58;6.68;;;3.35;;
51714;SDS011;39115;59.332;18.034;2022-08-19T09:47:24;7.32;;;3.53;;
51714;SDS011;39115;59.332;18.034;2022-08-19T09:49:49;9.80;;;4.10;;
51714;SDS011;39115;59.332;18.034;2022-08-19T09:52:15;7.80;;;4.10;;
51714;SDS011;39115;59.332;18.034;2022-08-19T09:54:41;7.13;;;3.47;;
51714;SDS011;39115;59.332;18.034;2022-08-19T09:57:06;7.57;;;4.18;;
51714;SDS011;39115;59.332;18.034;2022-08-19T09:59:32;7.50;;;4.00;;
51714;SDS011;39115;59.332;18.034;2022-08-19T10:01:57;11.05;;;4.20;;
51714;SDS011;39115;59.332;18.034;2022-08-19T10:04:22;7.53;;;3.25;;
51714;SDS011;39115;59.332;18.034;2022-08-19T10:07:08;8.30;;;3.88;;
51714;SDS011;39115;59.332;18.034;2022-08-19T10:09:33;7.75;;;3.67;;
51714;SDS011;39115;59.332;18.034;2022-08-19T10:11:59;6.88;;;3.03;;
51714;SDS011;39115;59.332;18.034;2022-08-19T10:14:25;7.20;;;3.33;;
51714;SDS011;39115;59.332;18.034;2022-08-19T10:16:52;10.50;;;3.72;;
51714;SDS011;39115;59.332;18.034;2022-08-19T10:19:17;5.85;;;3.17;;
51714;SDS011;39115;59.332;18.034;2022-08-19T10:21:45;6.57;;;3.35;;
51714;SDS011;39115;59.332;18.034;2022-08-19T10:24:10;5.32;;;3.47;;
51714;SDS011;39115;59.332;18.034;2022-08-19T10:26:36;6.05;;;3.45;;
51714;SDS011;39115;59.332;18.034;2022-08-19T10:29:04;7.78;;;3.20;;
51714;SDS011;39115;59.332;18.034;2022-08-19T10:31:31;5.10;;;3.05;;
51714;SDS011;39115;59.332;18.034;2022-08-19T10:33:58;4.82;;;3.65;;
51714;SDS011;39115;59.332;18.034;2022-08-19T10:36:26;8.18;;;3.25;;
51714;SDS011;39115;59.332;18.034;2022-08-19T10:38:56;7.57;;;3.47;;
51714;SDS011;39115;59.332;18.034;2022-08-19T10:41:25;6.82;;;3.47;;
51714;SDS011;39115;59.332;18.034;2022-08-19T10:43:54;6.63;;;3.30;;
51714;SDS011;39115;59.332;18.034;2022-08-19T10:46:22;5.53;;;3.53;;
51714;SDS011;39115;59.332;18.034;2022-08-19T10:48:49;5.78;;;3.47;;
51714;SDS011;39115;59.332;18.034;2022-08-19T10:51:15;6.70;;;2.80;;
51714;SDS011;39115;59.332;18.034;2022-08-19T10:53:59;6.47;;;2.92;;
51714;SDS011;39115;59.332;18.034;2022-08-19T10:56:26;3.95;;;3.20;;
51714;SDS011;39115;59.332;18.034;2022-08-19T10:59:11;5.93;;;3.20;;
51714;SDS011;39115;59.332;18.034;2022-08-19T11:01:39;7.72;;;3.08;;
51714;SDS011;39115;59.332;18.034;2022-08-19T11:04:06;5.65;;;3.10;;
51714;SDS011;39115;59.332;18.034;2022-08-19T11:06:34;12.48;;;3.25;;
51714;SDS011;39115;59.332;18.034;2022-08-19T11:09:01;3.75;;;2.80;;
51714;SDS011;39115;59.332;18.034;2022-08-19T11:11:28;3.08;;;2.70;;
51714;SDS011;39115;59.332;18.034;2022-08-19T11:13:53;6.65;;;2.78;;
51714;SDS011;39115;59.332;18.034;2022-08-19T11:16:20;4.53;;;3.17;;
51714;SDS011;39115;59.332;18.034;2022-08-19T11:18:49;5.63;;;2.65;;
51714;SDS011;39115;59.332;18.034;2022-08-19T11:21:17;6.47;;;2.50;;
51714;SDS011;39115;59.332;18.034;2022-08-19T11:23:45;9.57;;;2.80;;
51714;SDS011;39115;59.332;18.034;2022-08-19T11:26:13;5.40;;;2.85;;
51714;SDS011;39115;59.332;18.034;2022-08-19T11:28:40;5.18;;;3.10;;
51714;SDS011;39115;59.332;18.034;2022-08-19T11:31:10;3.70;;;2.55;;
51714;SDS011;39115;59.332;18.034;2022-08-19T11:33:44;6.00;;;2.70;;
51714;SDS011;39115;59.332;18.034;2022-08-19T11:36:11;5.50;;;2.58;;
51714;SDS011;39115;59.332;18.034;2022-08-19T11:38:37;5.90;;;2.90;;
51714;SDS011;39115;59.332;18.034;2022-08-19T11:41:04;3.08;;;2.60;;
51714;SDS011;39115;59.332;18.034;2022-08-19T11:43:32;6.85;;;2.60;;
51714;SDS011;39115;59.332;18.034;2022-08-19T11:45:58;3.88;;;2.67;;
51714;SDS011;39115;59.332;18.034;2022-08-19T11:48:24;4.25;;;2.72;;
51714;SDS011;39115;59.332;18.034;2022-08-19T11:50:51;5.88;;;2.78;;
51714;SDS011;39115;59.332;18.034;2022-08-19T11:53:18;5.13;;;2.80;;
51714;SDS011;39115;59.332;18.034;2022-08-19T11:55:45;7.47;;;5.13;;
51714;SDS011;39115;59.332;18.034;2022-08-19T11:58:12;3.50;;;2.22;;
51714;SDS011;39115;59.332;18.034;2022-08-19T12:00:39;2.97;;;2.38;;
51714;SDS011;39115;59.332;18.034;2022-08-19T12:03:05;2.47;;;2.28;;
51714;SDS011;39115;59.332;18.034;2022-08-19T12:05:30;2.78;;;2.22;;
51714;SDS011;39115;59.332;18.034;2022-08-19T12:07:56;3.58;;;2.40;;
51714;SDS011;39115;59.332;18.034;2022-08-19T12:10:21;6.25;;;2.75;;
51714;SDS011;39115;59.332;18.034;2022-08-19T12:12:48;4.50;;;2.70;;
51714;SDS011;39115;59.332;18.034;2022-08-19T12:15:13;5.50;;;2.15;;
51714;SDS011;39115;59.332;18.034;2022-08-19T12:17:39;5.03;;;2.80;;
51714;SDS011;39115;59.332;18.034;2022-08-19T12:20:06;5.85;;;2.30;;
51714;SDS011;39115;59.332;18.034;2022-08-19T12:22:33;5.18;;;2.58;;
51714;SDS011;39115;59.332;18.034;2022-08-19T12:24:59;6.88;;;2.35;;
51714;SDS011;39115;59.332;18.034;2022-08-19T12:27:25;3.72;;;2.53;;
51714;SDS011;39115;59.332;18.034;2022-08-19T12:29:51;5.72;;;2.22;;
51714;SDS011;39115;59.332;18.034;2022-08-19T12:32:16;4.03;;;2.60;;
51714;SDS011;39115;59.332;18.034;2022-08-19T12:34:42;4.00;;;2.40;;
51714;SDS011;39115;59.332;18.034;2022-08-19T12:37:08;10.90;;;2.65;;
51714;SDS011;39115;59.332;18.034;2022-08-19T12:39:34;7.18;;;2.88;;
51714;SDS011;39115;59.332;18.034;2022-08-19T12:42:01;10.70;;;2.47;;
51714;SDS011;39115;59.332;18.034;2022-08-19T12:44:26;6.50;;;2.40;;
51714;SDS011;39115;59.332;18.034;2022-08-19T12:46:52;10.43;;;3.00;;
51714;SDS011;39115;59.332;18.034;2022-08-19T12:49:17;6.82;;;3.10;;
51714;SDS011;39115;59.332;18.034;2022-08-19T12:51:42;3.92;;;2.00;;
51714;SDS011;39115;59.332;18.034;2022-08-19T12:54:08;6.22;;;2.28;;
51714;SDS011;39115;59.332;18.034;2022-08-19T12:56:33;9.32;;;2.80;;
51714;SDS011;39115;59.332;18.034;2022-08-19T12:59:03;5.85;;;2.90;;
51714;SDS011;39115;59.332;18.034;2022-08-19T13:01:29;5.43;;;2.80;;
51714;SDS011;39115;59.332;18.034;2022-08-19T13:03:57;6.55;;;2.92;;
51714;SDS011;39115;59.332;18.034;2022-08-19T13:06:23;8.20;;;2.72;;
51714;SDS011;39115;59.332;18.034;2022-08-19T13:08:49;8.82;;;2.95;;
51714;SDS011;39115;59.332;18.034;2022-08-19T13:11:15;7.20;;;2.85;;
51714;SDS011;39115;59.332;18.034;2022-08-19T13:13:43;9.13;;;2.75;;
51714;SDS011;39115;59.332;18.034;2022-08-19T13:16:10;7.50;;;3.10;;
51714;SDS011;39115;59.332;18.034;2022-08-19T13:18:37;5.40;;;2.70;;
51714;SDS011;39115;59.332;18.034;2022-08-19T13:21:04;5.68;;;2.75;;
51714;SDS011;39115;59.332;18.034;2022-08-19T13:23:31;4.35;;;2.67;;
51714;SDS011;39115;59.332;18.034;2022-08-19T13:26:01;8.60;;;2.92;;
51714;SDS011;39115;59.332;18.034;2022-08-19T13:28:31;4.72;;;2.85;;
51714;SDS011;39115;59.332;18.034;2022-08-19T13:31:17;7.20;;;3.13;;
51714;SDS011;39115;59.332;18.034;2022-08-19T13:34:03;5.70;;;3.58;;
51714;SDS011;39115;59.332;18.034;2022-08-19T13:36:30;7.20;;;3.10;;
51714;SDS011;39115;59.332;18.034;2022-08-19T13:39:02;5.25;;;2.67;;
51714;SDS011;39115;59.332;18.034;2022-08-19T13:41:29;7.53;;;3.08;;
51714;SDS011;39115;59.332;18.034;2022-08-19T13:43:55;6.07;;;2.47;;
51714;SDS011;39115;59.332;18.034;2022-08-19T13:46:20;7.68;;;3.05;;
51714;SDS011;39115;59.332;18.034;2022-08-19T13:48:46;10.80;;;3.05;;
51714;SDS011;39115;59.332;18.034;2022-08-19T13:51:13;10.38;;;3.40;;
51714;SDS011;39115;59.332;18.034;2022-08-19T13:53:41;5.50;;;2.58;;
51714;SDS011;39115;59.332;18.034;2022-08-19T13:56:08;8.00;;;3.20;;
51714;SDS011;39115;59.332;18.034;2022-08-19T13:58:35;4.55;;;3.20;;
51714;SDS011;39115;59.332;18.034;2022-08-19T14:01:02;8.95;;;3.47;;
51714;SDS011;39115;59.332;18.034;2022-08-19T14:03:29;14.30;;;4.00;;
51714;SDS011;39115;59.332;18.034;2022-08-19T14:05:55;8.18;;;3.00;;
51714;SDS011;39115;59.332;18.034;2022-08-19T14:08:21;9.48;;;3.55;;
51714;SDS011;39115;59.332;18.034;2022-08-19T14:10:47;7.75;;;3.05;;
51714;SDS011;39115;59.332;18.034;2022-08-19T14:13:14;3.83;;;2.97;;
51714;SDS011;39115;59.332;18.034;2022-08-19T14:15:42;6.03;;;3.00;;
51714;SDS011;39115;59.332;18.034;2022-08-19T14:18:08;5.55;;;3.10;;
51714;SDS011;39115;59.332;18.034;2022-08-19T14:20:34;8.77;;;3.28;;
51714;SDS011;39115;59.332;18.034;2022-08-19T14:23:00;7.95;;;3.05;;
51714;SDS011;39115;59.332;18.034;2022-08-19T14:25:25;5.88;;;3.25;;
51714;SDS011;39115;59.332;18.034;2022-08-19T14:27:54;6.38;;;3.47;;
51714;SDS011;39115;59.332;18.034;2022-08-19T14:30:24;7.72;;;3.45;;
51714;SDS011;39115;59.332;18.034;2022-08-19T14:32:52;6.68;;;3.58;;
51714;SDS011;39115;59.332;18.034;2022-08-19T14:35:19;9.85;;;4.15;;